VOE9LD LFKC-LFST
Flight info
| Callsign | VOE9LD |
|---|---|
| Flight time | 1h 14m |
| Altitude | 34000 |
| Route | SODRI G374 DIVUL M622 PIGOS DCT BARSO DCT IRMAR DCT KINES DCT VANAS DCT MOBLO DCT UBIMA DCT GILIR DCT PENDU DCT LUL |
| Aircraft | A319/M-SDE3FGHIRWY/LB1 |
Departure
| Time | 2026-05-06 15:51 |
|---|---|
| Airport | Calvi Sainte Catherine Airport (LFKC) |
Arrival
| Time | 2026-05-06 17:05 |
|---|---|
| Airport | Strasbourg Airport (LFST) |
| Time | Latitude | Longitude | Altitude | Speed | Heading |
|---|---|---|---|---|---|
| 2026-05-06 15:15 | 42.52519 | 8.79077 | 196 ft | 0 kts | 300° |
| 2026-05-06 15:22 | 42.52519 | 8.79078 | 192 ft | 0 kts | 300° |
| 2026-05-06 15:35 | 42.52518 | 8.79078 | 191 ft | 0 kts | 300° |
| 2026-05-06 15:38 | 42.52518 | 8.79079 | 191 ft | 0 kts | 300° |
| 2026-05-06 15:42 | 42.52514 | 8.79088 | 191 ft | 4 kts | 296° |
| 2026-05-06 15:42 | 42.52507 | 8.79122 | 192 ft | 4 kts | 263° |
| 2026-05-06 15:42 | 42.52517 | 8.79153 | 197 ft | 4 kts | 212° |
| 2026-05-06 15:42 | 42.52531 | 8.79161 | 207 ft | 1 kts | 179° |
| 2026-05-06 15:46 | 42.52524 | 8.79161 | 207 ft | 5 kts | 179° |
| 2026-05-06 15:46 | 42.52473 | 8.79162 | 199 ft | 10 kts | 179° |
| 2026-05-06 15:47 | 42.52440 | 8.79221 | 194 ft | 9 kts | 90° |
| 2026-05-06 15:47 | 42.52417 | 8.79297 | 200 ft | 8 kts | 147° |
| 2026-05-06 15:47 | 42.52381 | 8.79301 | 198 ft | 4 kts | 181° |
| 2026-05-06 15:47 | 42.52316 | 8.79301 | 204 ft | 13 kts | 180° |
| 2026-05-06 15:48 | 42.52241 | 8.79300 | 210 ft | 11 kts | 180° |
| 2026-05-06 15:48 | 42.52157 | 8.79300 | 219 ft | 11 kts | 180° |
| 2026-05-06 15:48 | 42.52093 | 8.79278 | 220 ft | 8 kts | 208° |
| 2026-05-06 15:48 | 42.52051 | 8.79267 | 220 ft | 5 kts | 145° |
| 2026-05-06 15:49 | 42.52064 | 8.79303 | 219 ft | 6 kts | 8° |
| 2026-05-06 15:49 | 42.52087 | 8.79303 | 226 ft | 0 kts | 360° |
| 2026-05-06 15:49 | 42.52089 | 8.79303 | 226 ft | 0 kts | 360° |
| 2026-05-06 15:50 | 42.52115 | 8.79302 | 217 ft | 24 kts | 360° |
| 2026-05-06 15:50 | 42.52595 | 8.79300 | 185 ft | 110 kts | 359° |
| 2026-05-06 15:50 | 42.53604 | 8.79300 | 159 ft | 171 kts | 358° |
| 2026-05-06 15:50 | 42.54813 | 8.79319 | 800 ft | 172 kts | 357° |
| 2026-05-06 15:51 | 42.56002 | 8.79316 | 1624 ft | 169 kts | 354° |
| 2026-05-06 15:51 | 42.57155 | 8.79295 | 2362 ft | 170 kts | 351° |
| 2026-05-06 15:51 | 42.58303 | 8.78725 | 2720 ft | 185 kts | 316° |
| 2026-05-06 15:51 | 42.59013 | 8.77197 | 3038 ft | 206 kts | 286° |
| 2026-05-06 15:52 | 42.59668 | 8.75367 | 3590 ft | 229 kts | 298° |
| 2026-05-06 15:52 | 42.60620 | 8.73504 | 4192 ft | 252 kts | 303° |
| 2026-05-06 15:52 | 42.61727 | 8.71554 | 4948 ft | 266 kts | 304° |
| 2026-05-06 15:52 | 42.62884 | 8.69596 | 5938 ft | 270 kts | 305° |
| 2026-05-06 15:53 | 42.64075 | 8.67598 | 6926 ft | 273 kts | 305° |
| 2026-05-06 15:53 | 42.65279 | 8.65578 | 7919 ft | 275 kts | 305° |
| 2026-05-06 15:53 | 42.66437 | 8.63485 | 8904 ft | 277 kts | 301° |
| 2026-05-06 15:53 | 42.67528 | 8.61332 | 9846 ft | 281 kts | 300° |
| 2026-05-06 15:54 | 42.68629 | 8.59071 | 10465 ft | 296 kts | 299° |
| 2026-05-06 15:54 | 42.69805 | 8.56638 | 10892 ft | 316 kts | 300° |
| 2026-05-06 15:54 | 42.71184 | 8.54241 | 11619 ft | 326 kts | 306° |
| 2026-05-06 15:54 | 42.72663 | 8.51917 | 12437 ft | 331 kts | 307° |
| 2026-05-06 15:55 | 42.74207 | 8.49549 | 13264 ft | 336 kts | 307° |
| 2026-05-06 15:55 | 42.75780 | 8.47160 | 14033 ft | 340 kts | 307° |
| 2026-05-06 15:55 | 42.77372 | 8.44743 | 14758 ft | 344 kts | 307° |
| 2026-05-06 15:55 | 42.78970 | 8.42301 | 15480 ft | 347 kts | 307° |
| 2026-05-06 15:56 | 42.80557 | 8.39859 | 16197 ft | 351 kts | 306° |
| 2026-05-06 15:56 | 42.82179 | 8.37351 | 16920 ft | 354 kts | 306° |
| 2026-05-06 15:56 | 42.83817 | 8.34817 | 17642 ft | 357 kts | 306° |
| 2026-05-06 15:56 | 42.85476 | 8.32248 | 18343 ft | 361 kts | 305° |
| 2026-05-06 15:57 | 42.87121 | 8.29698 | 18972 ft | 364 kts | 305° |
| 2026-05-06 15:57 | 42.88801 | 8.27089 | 19608 ft | 367 kts | 304° |
| 2026-05-06 15:57 | 42.90498 | 8.24449 | 20244 ft | 370 kts | 304° |
| 2026-05-06 15:57 | 42.92182 | 8.21828 | 20863 ft | 373 kts | 304° |
| 2026-05-06 15:58 | 42.93904 | 8.19146 | 21482 ft | 376 kts | 304° |
| 2026-05-06 15:58 | 42.95636 | 8.16445 | 22102 ft | 379 kts | 304° |
| 2026-05-06 15:58 | 42.97388 | 8.13713 | 22708 ft | 383 kts | 304° |
| 2026-05-06 15:58 | 42.99128 | 8.10995 | 23299 ft | 386 kts | 303° |
| 2026-05-06 15:59 | 43.00906 | 8.08221 | 23810 ft | 390 kts | 303° |
| 2026-05-06 15:59 | 43.02705 | 8.05421 | 24279 ft | 393 kts | 303° |
| 2026-05-06 15:59 | 43.04515 | 8.02598 | 24742 ft | 396 kts | 303° |
| 2026-05-06 15:59 | 43.06339 | 7.99744 | 25198 ft | 399 kts | 303° |
| 2026-05-06 16:00 | 43.08170 | 7.96875 | 25651 ft | 402 kts | 303° |
| 2026-05-06 16:00 | 43.09996 | 7.94010 | 26096 ft | 405 kts | 303° |
| 2026-05-06 16:00 | 43.11855 | 7.91090 | 26542 ft | 408 kts | 302° |
| 2026-05-06 16:00 | 43.13730 | 7.88141 | 26978 ft | 411 kts | 302° |
| 2026-05-06 16:01 | 43.15618 | 7.85174 | 27413 ft | 414 kts | 302° |
| 2026-05-06 16:01 | 43.17517 | 7.82187 | 27852 ft | 417 kts | 302° |
| 2026-05-06 16:01 | 43.19428 | 7.79173 | 28285 ft | 420 kts | 302° |
| 2026-05-06 16:01 | 43.21329 | 7.76175 | 28709 ft | 423 kts | 302° |
| 2026-05-06 16:02 | 43.23267 | 7.73114 | 29135 ft | 425 kts | 302° |
| 2026-05-06 16:02 | 43.25215 | 7.70032 | 29550 ft | 428 kts | 302° |
| 2026-05-06 16:02 | 43.27177 | 7.66924 | 29950 ft | 431 kts | 302° |
| 2026-05-06 16:02 | 43.29168 | 7.63889 | 30291 ft | 439 kts | 306° |
| 2026-05-06 16:03 | 43.31555 | 7.61164 | 30638 ft | 453 kts | 316° |
| 2026-05-06 16:03 | 43.34295 | 7.58910 | 30980 ft | 461 kts | 322° |
| 2026-05-06 16:03 | 43.37094 | 7.56738 | 31328 ft | 463 kts | 322° |
| 2026-05-06 16:03 | 43.39916 | 7.54554 | 31683 ft | 464 kts | 322° |
| 2026-05-06 16:04 | 43.42588 | 7.52492 | 32147 ft | 462 kts | 322° |
| 2026-05-06 16:04 | 43.45392 | 7.50323 | 32636 ft | 460 kts | 321° |
| 2026-05-06 16:04 | 43.48183 | 7.48151 | 33115 ft | 459 kts | 321° |
| 2026-05-06 16:04 | 43.50960 | 7.45977 | 33607 ft | 457 kts | 321° |
| 2026-05-06 16:05 | 43.53694 | 7.43834 | 33810 ft | 456 kts | 321° |
| 2026-05-06 16:05 | 43.56425 | 7.41701 | 33841 ft | 444 kts | 321° |
| 2026-05-06 16:05 | 43.61748 | 7.37535 | 33841 ft | 435 kts | 320° |
| 2026-05-06 16:06 | 43.66818 | 7.33178 | 33840 ft | 429 kts | 316° |
| 2026-05-06 16:06 | 43.71759 | 7.28513 | 33842 ft | 428 kts | 315° |
| 2026-05-06 16:07 | 43.76661 | 7.23892 | 33838 ft | 429 kts | 316° |
| 2026-05-06 16:07 | 43.81644 | 7.19303 | 33843 ft | 429 kts | 316° |
| 2026-05-06 16:08 | 43.86609 | 7.14763 | 33846 ft | 429 kts | 316° |
| 2026-05-06 16:08 | 43.91602 | 7.10175 | 33839 ft | 429 kts | 317° |
| 2026-05-06 16:09 | 43.96574 | 7.05581 | 33839 ft | 430 kts | 316° |
| 2026-05-06 16:09 | 44.01525 | 7.00984 | 33857 ft | 430 kts | 316° |
| 2026-05-06 16:10 | 44.06519 | 6.96347 | 33865 ft | 430 kts | 316° |
| 2026-05-06 16:10 | 44.11482 | 6.91771 | 33873 ft | 433 kts | 320° |
| 2026-05-06 16:11 | 44.14232 | 6.89911 | 33874 ft | 445 kts | 330° |
| 2026-05-06 16:11 | 44.17242 | 6.88700 | 33871 ft | 456 kts | 341° |
| 2026-05-06 16:11 | 44.23626 | 6.87667 | 33879 ft | 461 kts | 346° |
| 2026-05-06 16:12 | 44.29959 | 6.86705 | 33877 ft | 461 kts | 346° |
| 2026-05-06 16:12 | 44.36346 | 6.85724 | 33890 ft | 461 kts | 346° |
| 2026-05-06 16:13 | 44.42647 | 6.84749 | 33880 ft | 461 kts | 346° |
| 2026-05-06 16:13 | 44.49032 | 6.83776 | 33894 ft | 461 kts | 347° |
| 2026-05-06 16:14 | 44.55386 | 6.82823 | 33901 ft | 461 kts | 347° |
| 2026-05-06 16:14 | 44.61780 | 6.81847 | 33899 ft | 460 kts | 347° |
| 2026-05-06 16:15 | 44.68105 | 6.80876 | 33902 ft | 460 kts | 347° |
| 2026-05-06 16:15 | 44.74471 | 6.79902 | 33898 ft | 458 kts | 347° |
| 2026-05-06 16:16 | 44.79748 | 6.79094 | 33895 ft | 458 kts | 347° |
| 2026-05-06 16:16 | 44.87170 | 6.78374 | 33899 ft | 460 kts | 351° |
| 2026-05-06 16:17 | 44.93590 | 6.78074 | 33897 ft | 460 kts | 352° |
| 2026-05-06 16:17 | 44.98885 | 6.77822 | 33878 ft | 449 kts | 352° |
| 2026-05-06 16:18 | 45.05055 | 6.77442 | 33916 ft | 449 kts | 351° |
| 2026-05-06 16:18 | 45.11383 | 6.76967 | 33915 ft | 458 kts | 351° |
| 2026-05-06 16:19 | 45.17763 | 6.76528 | 33910 ft | 459 kts | 352° |
| 2026-05-06 16:19 | 45.24119 | 6.76124 | 33924 ft | 459 kts | 352° |
| 2026-05-06 16:20 | 45.30506 | 6.75714 | 33925 ft | 459 kts | 351° |
| 2026-05-06 16:20 | 45.36910 | 6.75287 | 33943 ft | 460 kts | 352° |
| 2026-05-06 16:21 | 45.43270 | 6.74852 | 33945 ft | 460 kts | 352° |
| 2026-05-06 16:21 | 45.49666 | 6.74410 | 33944 ft | 459 kts | 352° |
| 2026-05-06 16:22 | 45.56028 | 6.73979 | 33939 ft | 459 kts | 352° |
| 2026-05-06 16:22 | 45.62419 | 6.73540 | 33947 ft | 459 kts | 352° |
| 2026-05-06 16:23 | 45.68811 | 6.73104 | 33932 ft | 458 kts | 352° |
| 2026-05-06 16:23 | 45.75161 | 6.72673 | 33949 ft | 459 kts | 352° |
| 2026-05-06 16:24 | 45.81552 | 6.72221 | 33947 ft | 459 kts | 352° |
| 2026-05-06 16:24 | 45.87933 | 6.71788 | 33937 ft | 458 kts | 352° |
| 2026-05-06 16:25 | 45.94268 | 6.71367 | 33940 ft | 458 kts | 352° |
| 2026-05-06 16:25 | 46.00657 | 6.70927 | 33944 ft | 457 kts | 352° |
| 2026-05-06 16:26 | 46.06993 | 6.70501 | 33951 ft | 457 kts | 353° |
| 2026-05-06 16:26 | 46.13280 | 6.69637 | 33950 ft | 449 kts | 341° |
| 2026-05-06 16:27 | 46.19159 | 6.66953 | 33942 ft | 443 kts | 335° |
| 2026-05-06 16:27 | 46.25010 | 6.64100 | 33937 ft | 443 kts | 336° |
| 2026-05-06 16:28 | 46.30833 | 6.61281 | 33937 ft | 443 kts | 336° |
| 2026-05-06 16:28 | 46.36694 | 6.58428 | 33933 ft | 443 kts | 336° |
| 2026-05-06 16:29 | 46.42524 | 6.55571 | 33924 ft | 442 kts | 336° |
| 2026-05-06 16:29 | 46.48344 | 6.52717 | 33925 ft | 442 kts | 336° |
| 2026-05-06 16:30 | 46.53203 | 6.50331 | 33920 ft | 442 kts | 336° |
| 2026-05-06 16:30 | 46.59994 | 6.46987 | 33923 ft | 442 kts | 336° |
| 2026-05-06 16:31 | 46.65789 | 6.44127 | 33923 ft | 441 kts | 336° |
| 2026-05-06 16:31 | 46.71614 | 6.41240 | 33918 ft | 440 kts | 337° |
| 2026-05-06 16:32 | 46.77381 | 6.38380 | 33915 ft | 440 kts | 337° |
| 2026-05-06 16:32 | 46.83197 | 6.35489 | 33913 ft | 440 kts | 337° |
| 2026-05-06 16:33 | 46.88990 | 6.32616 | 33916 ft | 439 kts | 337° |
| 2026-05-06 16:34 | 46.97645 | 6.28284 | 33919 ft | 439 kts | 337° |
| 2026-05-06 16:34 | 47.03428 | 6.25378 | 33914 ft | 439 kts | 337° |
| 2026-05-06 16:35 | 47.09009 | 6.22003 | 33913 ft | 435 kts | 330° |
| 2026-05-06 16:35 | 47.14439 | 6.18081 | 33910 ft | 434 kts | 330° |
| 2026-05-06 16:36 | 47.19876 | 6.14156 | 33904 ft | 434 kts | 330° |
| 2026-05-06 16:36 | 47.25274 | 6.10244 | 33901 ft | 434 kts | 330° |
| 2026-05-06 16:37 | 47.30845 | 6.06780 | 33891 ft | 439 kts | 344° |
| 2026-05-06 16:37 | 47.33881 | 6.06129 | 33887 ft | 443 kts | 356° |
| 2026-05-06 16:37 | 47.36969 | 6.06358 | 33886 ft | 445 kts | 7° |
| 2026-05-06 16:37 | 47.39978 | 6.07453 | 33883 ft | 446 kts | 19° |
| 2026-05-06 16:38 | 47.42802 | 6.09336 | 33689 ft | 447 kts | 27° |
| 2026-05-06 16:38 | 47.45574 | 6.11462 | 33406 ft | 447 kts | 27° |
| 2026-05-06 16:38 | 47.48290 | 6.13558 | 33140 ft | 446 kts | 27° |
| 2026-05-06 16:38 | 47.51041 | 6.15691 | 32877 ft | 445 kts | 28° |
| 2026-05-06 16:39 | 47.53773 | 6.17816 | 32580 ft | 441 kts | 28° |
| 2026-05-06 16:39 | 47.56495 | 6.19936 | 32019 ft | 438 kts | 28° |
| 2026-05-06 16:39 | 47.59185 | 6.22035 | 31488 ft | 435 kts | 28° |
| 2026-05-06 16:39 | 47.61824 | 6.24095 | 30954 ft | 432 kts | 28° |
| 2026-05-06 16:40 | 47.64481 | 6.26168 | 30436 ft | 429 kts | 28° |
| 2026-05-06 16:40 | 47.67161 | 6.28107 | 29883 ft | 427 kts | 22° |
| 2026-05-06 16:40 | 47.69988 | 6.29389 | 29368 ft | 422 kts | 12° |
| 2026-05-06 16:40 | 47.72843 | 6.29951 | 28919 ft | 416 kts | 4° |
| 2026-05-06 16:41 | 47.75725 | 6.30220 | 28466 ft | 411 kts | 4° |
| 2026-05-06 16:41 | 47.78561 | 6.30491 | 28021 ft | 406 kts | 4° |
| 2026-05-06 16:41 | 47.81375 | 6.30765 | 27588 ft | 401 kts | 4° |
| 2026-05-06 16:41 | 47.84150 | 6.31035 | 27158 ft | 398 kts | 4° |
| 2026-05-06 16:42 | 47.86868 | 6.31296 | 26743 ft | 395 kts | 4° |
| 2026-05-06 16:42 | 47.89608 | 6.31559 | 26317 ft | 392 kts | 4° |
| 2026-05-06 16:42 | 47.92323 | 6.31827 | 25902 ft | 389 kts | 4° |
| 2026-05-06 16:42 | 47.95019 | 6.32100 | 25463 ft | 386 kts | 4° |
| 2026-05-06 16:43 | 47.97696 | 6.32368 | 25024 ft | 384 kts | 4° |
| 2026-05-06 16:43 | 48.00326 | 6.32628 | 24575 ft | 382 kts | 4° |
| 2026-05-06 16:43 | 48.02972 | 6.32889 | 24111 ft | 381 kts | 4° |
| 2026-05-06 16:43 | 48.05622 | 6.33152 | 23648 ft | 379 kts | 4° |
| 2026-05-06 16:44 | 48.08254 | 6.33415 | 23127 ft | 378 kts | 4° |
| 2026-05-06 16:44 | 48.10877 | 6.33675 | 22642 ft | 375 kts | 4° |
| 2026-05-06 16:44 | 48.13435 | 6.33925 | 22185 ft | 372 kts | 4° |
| 2026-05-06 16:44 | 48.16014 | 6.34175 | 21713 ft | 369 kts | 4° |
| 2026-05-06 16:45 | 48.18576 | 6.34423 | 21268 ft | 367 kts | 4° |
| 2026-05-06 16:45 | 48.21118 | 6.34671 | 20820 ft | 365 kts | 4° |
| 2026-05-06 16:45 | 48.23648 | 6.34921 | 20372 ft | 363 kts | 3° |
| 2026-05-06 16:45 | 48.26168 | 6.35173 | 19928 ft | 362 kts | 3° |
| 2026-05-06 16:46 | 48.28632 | 6.35448 | 19699 ft | 355 kts | 7° |
| 2026-05-06 16:46 | 48.31007 | 6.36341 | 19347 ft | 352 kts | 22° |
| 2026-05-06 16:46 | 48.33152 | 6.38091 | 18963 ft | 350 kts | 37° |
| 2026-05-06 16:46 | 48.34913 | 6.40551 | 18830 ft | 344 kts | 51° |
| 2026-05-06 16:47 | 48.36388 | 6.43374 | 18755 ft | 343 kts | 53° |
| 2026-05-06 16:47 | 48.37862 | 6.46205 | 18651 ft | 344 kts | 53° |
| 2026-05-06 16:47 | 48.39337 | 6.49033 | 18411 ft | 342 kts | 53° |
| 2026-05-06 16:47 | 48.40801 | 6.51842 | 18169 ft | 341 kts | 53° |
| 2026-05-06 16:48 | 48.42248 | 6.54615 | 17895 ft | 340 kts | 52° |
| 2026-05-06 16:48 | 48.43706 | 6.57417 | 17628 ft | 339 kts | 53° |
| 2026-05-06 16:48 | 48.45159 | 6.60216 | 17356 ft | 338 kts | 53° |
| 2026-05-06 16:48 | 48.46603 | 6.63002 | 17090 ft | 337 kts | 53° |
| 2026-05-06 16:49 | 48.48047 | 6.65791 | 16825 ft | 336 kts | 53° |
| 2026-05-06 16:49 | 48.49462 | 6.68526 | 16564 ft | 335 kts | 53° |
| 2026-05-06 16:49 | 48.50894 | 6.71299 | 16303 ft | 334 kts | 53° |
| 2026-05-06 16:49 | 48.52319 | 6.74059 | 16040 ft | 333 kts | 53° |
| 2026-05-06 16:50 | 48.53731 | 6.76798 | 15795 ft | 332 kts | 53° |
| 2026-05-06 16:50 | 48.55138 | 6.79534 | 15539 ft | 331 kts | 53° |
| 2026-05-06 16:50 | 48.56546 | 6.82277 | 15289 ft | 329 kts | 53° |
| 2026-05-06 16:50 | 48.57948 | 6.85015 | 15028 ft | 328 kts | 53° |
| 2026-05-06 16:51 | 48.59346 | 6.87741 | 14798 ft | 327 kts | 53° |
| 2026-05-06 16:51 | 48.60742 | 6.90464 | 14543 ft | 326 kts | 53° |
| 2026-05-06 16:51 | 48.61919 | 6.93333 | 14303 ft | 325 kts | 65° |
| 2026-05-06 16:51 | 48.62678 | 6.96538 | 14053 ft | 322 kts | 78° |
| 2026-05-06 16:52 | 48.63191 | 6.99842 | 13816 ft | 322 kts | 78° |
| 2026-05-06 16:52 | 48.63711 | 7.03142 | 13567 ft | 321 kts | 78° |
| 2026-05-06 16:52 | 48.64229 | 7.06429 | 13297 ft | 321 kts | 78° |
| 2026-05-06 16:52 | 48.64739 | 7.09659 | 13032 ft | 319 kts | 78° |
| 2026-05-06 16:53 | 48.65252 | 7.12923 | 12774 ft | 318 kts | 78° |
| 2026-05-06 16:53 | 48.65761 | 7.16175 | 12506 ft | 317 kts | 78° |
| 2026-05-06 16:53 | 48.66268 | 7.19426 | 12244 ft | 316 kts | 78° |
| 2026-05-06 16:53 | 48.66774 | 7.22665 | 11985 ft | 315 kts | 78° |
| 2026-05-06 16:54 | 48.67269 | 7.25849 | 11820 ft | 313 kts | 78° |
| 2026-05-06 16:54 | 48.67772 | 7.29081 | 11630 ft | 314 kts | 78° |
| 2026-05-06 16:54 | 48.68278 | 7.32288 | 11394 ft | 313 kts | 78° |
| 2026-05-06 16:54 | 48.68784 | 7.35494 | 11043 ft | 312 kts | 78° |
| 2026-05-06 16:55 | 48.69286 | 7.38681 | 10704 ft | 310 kts | 78° |
| 2026-05-06 16:55 | 48.69783 | 7.41860 | 10348 ft | 309 kts | 78° |
| 2026-05-06 16:55 | 48.70271 | 7.44985 | 10002 ft | 308 kts | 78° |
| 2026-05-06 16:55 | 48.70763 | 7.48136 | 9643 ft | 306 kts | 78° |
| 2026-05-06 16:56 | 48.71252 | 7.51265 | 9278 ft | 304 kts | 78° |
| 2026-05-06 16:56 | 48.71737 | 7.54378 | 8934 ft | 303 kts | 78° |
| 2026-05-06 16:56 | 48.72215 | 7.57471 | 8585 ft | 301 kts | 78° |
| 2026-05-06 16:56 | 48.72690 | 7.60561 | 8231 ft | 299 kts | 78° |
| 2026-05-06 16:57 | 48.73156 | 7.63590 | 7882 ft | 297 kts | 78° |
| 2026-05-06 16:57 | 48.73625 | 7.66642 | 7543 ft | 297 kts | 78° |
| 2026-05-06 16:57 | 48.74089 | 7.69688 | 7345 ft | 294 kts | 79° |
| 2026-05-06 16:57 | 48.74543 | 7.72671 | 7215 ft | 285 kts | 78° |
| 2026-05-06 16:58 | 48.74977 | 7.75522 | 7076 ft | 274 kts | 79° |
| 2026-05-06 16:58 | 48.75396 | 7.78297 | 6834 ft | 266 kts | 80° |
| 2026-05-06 16:58 | 48.75435 | 7.81055 | 6259 ft | 263 kts | 107° |
| 2026-05-06 16:58 | 48.74621 | 7.83440 | 5754 ft | 254 kts | 136° |
| 2026-05-06 16:59 | 48.73249 | 7.84949 | 5411 ft | 237 kts | 161° |
| 2026-05-06 16:59 | 48.71748 | 7.85832 | 5110 ft | 226 kts | 163° |
| 2026-05-06 16:59 | 48.70307 | 7.86671 | 4836 ft | 217 kts | 163° |
| 2026-05-06 16:59 | 48.68881 | 7.87010 | 4556 ft | 201 kts | 191° |
| 2026-05-06 17:00 | 48.67614 | 7.86329 | 4345 ft | 190 kts | 216° |
| 2026-05-06 17:00 | 48.66683 | 7.84958 | 4116 ft | 189 kts | 230° |
| 2026-05-06 17:00 | 48.65817 | 7.83457 | 3883 ft | 188 kts | 230° |
| 2026-05-06 17:00 | 48.64969 | 7.81989 | 3639 ft | 184 kts | 229° |
| 2026-05-06 17:01 | 48.64128 | 7.80537 | 3397 ft | 183 kts | 229° |
| 2026-05-06 17:01 | 48.63288 | 7.79087 | 3150 ft | 183 kts | 229° |
| 2026-05-06 17:01 | 48.62448 | 7.77639 | 2903 ft | 182 kts | 229° |
| 2026-05-06 17:01 | 48.61645 | 7.76255 | 2667 ft | 175 kts | 229° |
| 2026-05-06 17:02 | 48.60858 | 7.74900 | 2474 ft | 167 kts | 229° |
| 2026-05-06 17:02 | 48.60105 | 7.73602 | 2231 ft | 162 kts | 227° |
| 2026-05-06 17:02 | 48.59371 | 7.72340 | 2005 ft | 157 kts | 227° |
| 2026-05-06 17:02 | 48.58685 | 7.71160 | 1803 ft | 141 kts | 227° |
| 2026-05-06 17:03 | 48.58071 | 7.70104 | 1627 ft | 129 kts | 227° |
| 2026-05-06 17:03 | 48.57490 | 7.69105 | 1445 ft | 125 kts | 225° |
| 2026-05-06 17:03 | 48.56916 | 7.68119 | 1273 ft | 123 kts | 226° |
| 2026-05-06 17:03 | 48.56357 | 7.67140 | 1082 ft | 124 kts | 227° |
| 2026-05-06 17:04 | 48.55798 | 7.66150 | 863 ft | 123 kts | 225° |
| 2026-05-06 17:04 | 48.55222 | 7.65191 | 726 ft | 123 kts | 225° |
| 2026-05-06 17:04 | 48.54652 | 7.64228 | 580 ft | 122 kts | 225° |
| 2026-05-06 17:04 | 48.54108 | 7.63298 | 514 ft | 106 kts | 227° |
| 2026-05-06 17:05 | 48.53781 | 7.62737 | 510 ft | 42 kts | 229° |
| 2026-05-06 17:05 | 48.53654 | 7.62520 | 512 ft | 18 kts | 230° |
| 2026-05-06 17:05 | 48.53619 | 7.62409 | 513 ft | 10 kts | 276° |
| 2026-05-06 17:05 | 48.53664 | 7.62327 | 512 ft | 11 kts | 320° |
| 2026-05-06 17:06 | 48.53733 | 7.62286 | 512 ft | 11 kts | 12° |
| 2026-05-06 17:06 | 48.53793 | 7.62363 | 512 ft | 12 kts | 48° |
| 2026-05-06 17:06 | 48.53849 | 7.62459 | 512 ft | 13 kts | 49° |
| 2026-05-06 17:06 | 48.53909 | 7.62563 | 512 ft | 14 kts | 50° |
| 2026-05-06 17:07 | 48.53952 | 7.62635 | 512 ft | 0 kts | 49° |
| 2026-05-06 17:07 | 48.53953 | 7.62638 | 512 ft | 0 kts | 49° |
| 2026-05-06 17:07 | 48.53955 | 7.62641 | 512 ft | 2 kts | 49° |
| 2026-05-06 17:08 | 48.54010 | 7.62735 | 512 ft | 19 kts | 49° |
| 2026-05-06 17:08 | 48.54099 | 7.62887 | 512 ft | 18 kts | 49° |
| 2026-05-06 17:08 | 48.54190 | 7.62913 | 512 ft | 14 kts | 326° |
| 2026-05-06 17:08 | 48.54263 | 7.62819 | 512 ft | 12 kts | 319° |
| 2026-05-06 17:09 | 48.54272 | 7.62720 | 512 ft | 3 kts | 242° |
| 2026-05-06 17:09 | 48.54257 | 7.62691 | 512 ft | 4 kts | 224° |
| 2026-05-06 17:09 | 48.54239 | 7.62653 | 512 ft | 5 kts | 257° |
| 2026-05-06 17:09 | 48.54251 | 7.62624 | 512 ft | 2 kts | 320° |
| 2026-05-06 17:10 | 48.54258 | 7.62616 | 512 ft | 1 kts | 327° |
| 2026-05-06 17:10 | 48.54264 | 7.62610 | 512 ft | 1 kts | 328° |
| 2026-05-06 17:10 | 48.54265 | 7.62610 | 512 ft | 0 kts | 328° |